createdAt,value
2018-11-05T00:01:40.732Z,7.50
2018-11-05T00:04:09.493Z,7.40
2018-11-05T00:06:38.085Z,7.30
2018-11-05T00:09:08.616Z,7.30
2018-11-05T00:11:37.132Z,7.30
2018-11-05T00:14:05.859Z,7.40
2018-11-05T00:16:34.487Z,7.40
2018-11-05T00:19:03.239Z,7.40
2018-11-05T00:21:31.889Z,7.40
2018-11-05T00:24:01.392Z,7.40
2018-11-05T00:26:35.594Z,7.40
2018-11-05T00:29:04.066Z,7.40
2018-11-05T00:31:32.754Z,7.40
2018-11-05T00:34:01.658Z,7.40
2018-11-05T00:36:35.680Z,7.40
2018-11-05T00:39:09.278Z,7.40
2018-11-05T00:41:38.066Z,7.40
2018-11-05T00:44:08.885Z,7.40
2018-11-05T00:46:38.114Z,7.40
2018-11-05T00:49:07.011Z,7.40
2018-11-05T00:51:42.007Z,7.40
2018-11-05T00:54:12.646Z,7.30
2018-11-05T00:56:53.637Z,7.30
2018-11-05T00:59:30.038Z,7.30
2018-11-05T01:02:13.575Z,7.30
2018-11-05T01:04:48.202Z,7.30
2018-11-05T01:07:29.322Z,7.30
2018-11-05T01:12:51.677Z,7.30
2018-11-05T01:15:20.383Z,7.30
2018-11-05T01:17:49.082Z,7.20
2018-11-05T01:20:17.738Z,7.20
2018-11-05T01:22:46.457Z,7.30
2018-11-05T01:25:15.117Z,7.30
2018-11-05T01:27:46.702Z,7.20
2018-11-05T01:30:15.370Z,7.20
2018-11-05T01:32:44.074Z,7.20
2018-11-05T01:35:28.792Z,7.20
2018-11-05T01:37:58.243Z,7.20
2018-11-05T01:40:34.075Z,7.20
2018-11-05T01:43:02.572Z,7.10
2018-11-05T01:45:32.089Z,7.10
2018-11-05T01:48:06.300Z,7.10
2018-11-05T01:50:34.791Z,7.10
2018-11-05T01:53:04.314Z,7.10
2018-11-05T01:55:35.818Z,7.00
2018-11-05T01:58:09.462Z,7.00
2018-11-05T02:00:38.113Z,7.00
2018-11-05T02:03:06.791Z,7.00
2018-11-05T02:05:37.146Z,7.00
2018-11-05T02:08:08.722Z,6.90
2018-11-05T02:10:37.382Z,6.90
2018-11-05T02:13:11.609Z,6.90
2018-11-05T02:15:44.146Z,6.90
2018-11-05T02:18:15.757Z,6.90
2018-11-05T02:20:47.662Z,6.80
2018-11-05T02:23:21.940Z,6.80
2018-11-05T02:25:57.578Z,6.80
2018-11-05T02:28:26.070Z,6.80
2018-11-05T02:31:01.082Z,6.80
2018-11-05T02:33:29.538Z,6.80
2018-11-05T02:35:58.210Z,6.70
2018-11-05T02:38:28.617Z,6.70
2018-11-05T02:40:59.291Z,6.70
2018-11-05T02:43:29.687Z,6.70
2018-11-05T02:46:05.484Z,6.70
2018-11-05T02:48:33.981Z,6.70
2018-11-05T02:51:06.802Z,6.70
2018-11-05T02:53:35.449Z,6.60
2018-11-05T02:56:07.680Z,6.60
2018-11-05T02:58:37.318Z,6.60
2018-11-05T03:01:06.978Z,6.60
2018-11-05T03:03:41.050Z,6.60
2018-11-05T03:06:09.504Z,6.60
2018-11-05T03:08:39.063Z,6.50
2018-11-05T03:11:14.061Z,6.50
2018-11-05T03:13:42.557Z,6.50
2018-11-05T03:16:12.019Z,6.40
2018-11-05T03:18:41.246Z,6.50
2018-11-05T03:21:09.822Z,6.50
2018-11-05T03:23:42.231Z,6.50
2018-11-05T03:26:14.194Z,6.50
2018-11-05T03:28:46.165Z,6.40
2018-11-05T03:31:14.811Z,6.50
2018-11-05T03:33:43.484Z,6.50
2018-11-05T03:36:17.108Z,6.50
2018-11-05T03:38:45.774Z,6.50
2018-11-05T03:41:14.559Z,6.50
2018-11-05T03:43:45.246Z,6.50
2018-11-05T03:46:14.714Z,6.50
2018-11-05T03:48:43.404Z,6.50
2018-11-05T03:51:12.925Z,6.50
2018-11-05T03:53:48.376Z,6.50
2018-11-05T03:56:22.927Z,6.50
2018-11-05T03:58:51.233Z,6.60
2018-11-05T04:01:31.249Z,6.60
2018-11-05T04:04:01.757Z,6.60
2018-11-05T04:06:34.536Z,6.60
2018-11-05T04:09:04.941Z,6.70
2018-11-05T04:11:37.252Z,6.70
2018-11-05T04:14:06.877Z,6.70
2018-11-05T04:16:35.412Z,6.70
2018-11-05T04:19:05.253Z,6.80
2018-11-05T04:21:42.190Z,6.80
2018-11-05T04:24:13.357Z,6.80
2018-11-05T04:26:47.379Z,6.80
2018-11-05T04:29:23.681Z,6.80
2018-11-05T04:31:57.024Z,6.80
2018-11-05T04:34:29.027Z,6.80
2018-11-05T04:37:00.959Z,6.80
2018-11-05T04:39:29.667Z,6.80
2018-11-05T04:41:58.623Z,6.80
2018-11-05T04:44:29.100Z,6.80
2018-11-05T04:47:03.587Z,6.80
2018-11-05T04:49:33.039Z,6.80
2018-11-05T04:52:07.181Z,6.80
2018-11-05T04:54:35.747Z,6.90
2018-11-05T04:57:08.103Z,6.90
2018-11-05T04:59:37.555Z,6.90
2018-11-05T05:02:15.082Z,6.90
2018-11-05T05:04:49.910Z,7.00
2018-11-05T05:07:18.397Z,7.00
2018-11-05T05:09:47.083Z,7.00
2018-11-05T05:12:25.408Z,7.00
2018-11-05T05:14:55.915Z,7.00
2018-11-05T05:17:30.133Z,7.00
2018-11-05T05:19:58.664Z,7.00
2018-11-05T05:22:27.479Z,7.00
2018-11-05T05:24:57.006Z,7.00
2018-11-05T05:27:25.596Z,7.00
2018-11-05T05:30:01.930Z,7.10
2018-11-05T05:32:31.446Z,7.10
2018-11-05T05:35:00.993Z,7.10
2018-11-05T05:37:29.675Z,7.10
2018-11-05T05:40:01.772Z,7.10
2018-11-05T05:42:30.553Z,7.10
2018-11-05T05:44:59.009Z,7.20
2018-11-05T05:47:28.619Z,7.20
2018-11-05T05:49:57.183Z,7.20
2018-11-05T05:52:26.789Z,7.20
2018-11-05T05:54:55.407Z,7.30
2018-11-05T05:57:31.629Z,7.30
2018-11-05T06:00:00.223Z,7.40
2018-11-05T06:02:40.606Z,7.40
2018-11-05T06:05:10.652Z,7.40
2018-11-05T06:07:39.801Z,7.40
2018-11-05T06:10:10.085Z,7.40
2018-11-05T06:12:39.763Z,7.40
2018-11-05T06:15:15.687Z,7.50
2018-11-05T06:17:47.997Z,7.50
2018-11-05T06:20:24.326Z,7.60
2018-11-05T06:22:59.111Z,7.60
2018-11-05T06:25:41.045Z,7.60
2018-11-05T06:28:24.623Z,7.60
2018-11-05T06:30:53.411Z,7.60
2018-11-05T06:33:24.453Z,7.60
2018-11-05T06:35:53.120Z,7.70
2018-11-05T06:38:25.041Z,7.70
2018-11-05T06:40:55.743Z,7.70
2018-11-05T06:43:24.425Z,7.70
2018-11-05T06:46:01.134Z,7.70
2018-11-05T06:48:30.776Z,7.70
2018-11-05T06:51:05.865Z,7.70
2018-11-05T06:53:35.641Z,7.70
2018-11-05T06:56:05.041Z,7.70
2018-11-05T06:58:33.706Z,7.70
2018-11-05T07:01:02.457Z,7.70
2018-11-05T07:03:31.130Z,7.70
2018-11-05T07:06:00.052Z,7.70
2018-11-05T07:08:32.362Z,7.70
2018-11-05T07:11:01.102Z,7.80
2018-11-05T07:13:29.683Z,7.80
2018-11-05T07:15:58.323Z,7.80
2018-11-05T07:18:30.488Z,7.80
2018-11-05T07:20:58.859Z,7.90
2018-11-05T07:23:30.847Z,7.80
2018-11-05T07:25:59.634Z,7.90
2018-11-05T07:28:33.762Z,7.90
2018-11-05T07:31:02.247Z,7.90
2018-11-05T07:33:31.870Z,8.00
2018-11-05T07:36:02.468Z,8.10
2018-11-05T07:38:36.692Z,8.10
2018-11-05T07:41:13.350Z,8.20
2018-11-05T07:43:47.994Z,8.20
2018-11-05T07:46:16.518Z,8.20
2018-11-05T07:48:45.983Z,8.20
2018-11-05T07:51:18.858Z,8.20
2018-11-05T07:53:55.086Z,8.30
2018-11-05T07:56:29.292Z,8.40
2018-11-05T07:59:01.289Z,8.40
2018-11-05T08:01:35.400Z,8.50
2018-11-05T08:04:07.684Z,8.50
2018-11-05T08:06:38.389Z,8.50
2018-11-05T08:09:10.254Z,8.60
2018-11-05T08:11:41.157Z,8.60
2018-11-05T08:14:09.875Z,8.70
2018-11-05T08:16:43.967Z,8.70
2018-11-05T08:19:24.490Z,8.80
2018-11-05T08:21:55.897Z,8.80
2018-11-05T08:24:27.907Z,8.80
2018-11-05T08:26:56.565Z,8.80
2018-11-05T08:29:27.295Z,8.80
2018-11-05T08:32:03.557Z,8.90
2018-11-05T08:34:36.955Z,8.90
2018-11-05T08:37:06.825Z,8.90
2018-11-05T08:39:36.360Z,8.90
2018-11-05T08:42:07.895Z,9.00
2018-11-05T08:44:39.839Z,9.00
2018-11-05T08:47:09.387Z,9.20
2018-11-05T08:49:38.847Z,9.30
2018-11-05T08:52:09.480Z,9.50
2018-11-05T08:54:39.264Z,9.60
2018-11-05T08:57:09.024Z,9.60
2018-11-05T08:59:39.763Z,9.80
2018-11-05T09:02:09.279Z,9.80
2018-11-05T09:04:40.048Z,9.90
2018-11-05T09:07:09.538Z,9.90
2018-11-05T09:09:39.016Z,9.90
2018-11-05T09:12:09.891Z,9.90
2018-11-05T09:14:39.220Z,10.00
2018-11-05T09:17:14.733Z,10.00
2018-11-05T09:19:45.203Z,10.00
2018-11-05T09:22:16.003Z,10.10
2018-11-05T09:24:52.214Z,10.10
2018-11-05T09:27:22.765Z,10.00
2018-11-05T09:29:52.553Z,10.00
2018-11-05T09:32:22.182Z,10.00
2018-11-05T09:34:58.099Z,10.00
2018-11-05T09:37:27.736Z,10.10
2018-11-05T09:40:01.979Z,10.10
2018-11-05T09:42:30.452Z,10.10
2018-11-05T09:45:02.419Z,10.20
2018-11-05T09:47:31.904Z,10.30
2018-11-05T09:50:06.796Z,10.40
2018-11-05T09:52:35.479Z,10.40
2018-11-05T09:55:05.160Z,10.50
2018-11-05T09:57:45.886Z,10.50
2018-11-05T10:00:20.256Z,10.50
2018-11-05T10:03:27.543Z,10.60
2018-11-05T10:05:55.890Z,10.60
2018-11-05T10:08:24.562Z,10.60
2018-11-05T10:10:53.306Z,10.70
2018-11-05T10:13:21.842Z,10.70
2018-11-05T10:15:50.593Z,10.70
2018-11-05T10:18:25.125Z,10.80
2018-11-05T10:20:53.626Z,10.80
2018-11-05T10:23:34.642Z,10.80
2018-11-05T10:26:05.667Z,10.90
2018-11-05T10:28:35.365Z,10.90
2018-11-05T10:31:03.990Z,10.90
2018-11-05T10:33:50.870Z,10.90
2018-11-05T10:36:19.617Z,10.90
2018-11-05T10:38:48.246Z,11.00
2018-11-05T10:41:24.847Z,11.00
2018-11-05T10:44:01.816Z,11.10
2018-11-05T10:46:31.295Z,11.20
2018-11-05T10:49:02.123Z,11.20
2018-11-05T10:51:36.505Z,11.30
2018-11-05T10:54:05.294Z,11.40
2018-11-05T10:56:35.741Z,11.50
2018-11-05T10:59:06.228Z,11.50
2018-11-05T11:01:47.535Z,11.60
2018-11-05T11:04:22.530Z,11.70
2018-11-05T11:07:04.115Z,11.70
2018-11-05T11:09:34.668Z,11.60
2018-11-05T11:12:08.195Z,11.70
2018-11-05T11:14:43.993Z,11.70
2018-11-05T11:17:12.491Z,11.80
2018-11-05T11:19:41.170Z,11.90
2018-11-05T11:22:15.612Z,11.80
2018-11-05T11:24:56.566Z,11.80
2018-11-05T11:27:25.292Z,11.90
2018-11-05T11:29:57.217Z,11.90
2018-11-05T11:32:25.979Z,11.90
2018-11-05T11:35:01.143Z,11.80
2018-11-05T11:37:31.436Z,11.80
2018-11-05T11:40:00.991Z,11.80
2018-11-05T11:42:36.510Z,11.80
2018-11-05T11:45:11.583Z,12.00
2018-11-05T11:47:46.080Z,12.10
2018-11-05T11:50:16.606Z,12.10
2018-11-05T11:52:45.348Z,12.10
2018-11-05T11:55:15.594Z,12.20
2018-11-05T11:57:50.308Z,12.20
2018-11-05T12:00:24.128Z,12.20
2018-11-05T12:02:53.263Z,12.10
2018-11-05T12:05:22.884Z,12.10
2018-11-05T12:07:55.050Z,12.10
2018-11-05T12:10:25.012Z,12.10
2018-11-05T12:12:53.681Z,12.20
2018-11-05T12:15:29.921Z,12.30
2018-11-05T12:17:58.557Z,12.40
2018-11-05T12:20:27.188Z,12.40
2018-11-05T12:22:55.803Z,12.30
2018-11-05T12:25:28.593Z,12.40
2018-11-05T12:27:57.280Z,12.40
2018-11-05T12:30:31.457Z,12.50
2018-11-05T12:32:59.962Z,12.60
2018-11-05T12:38:23.958Z,12.80
2018-11-05T12:41:03.056Z,13.00
2018-11-05T12:43:49.164Z,13.10
2018-11-05T12:46:17.821Z,13.20
2018-11-05T12:48:46.538Z,13.30
2018-11-05T12:51:15.239Z,13.30
2018-11-05T12:53:43.926Z,13.40
2018-11-05T12:56:21.024Z,13.40
2018-11-05T12:58:49.491Z,13.40
2018-11-05T13:01:18.247Z,13.40
2018-11-05T13:03:46.867Z,13.30
2018-11-05T13:06:21.886Z,13.20
2018-11-05T13:08:50.955Z,13.30
2018-11-05T13:11:19.470Z,13.40
2018-11-05T13:13:48.973Z,13.30
2018-11-05T13:16:18.482Z,13.30
2018-11-05T13:18:50.596Z,13.30
2018-11-05T13:21:19.216Z,13.30
2018-11-05T13:23:48.651Z,13.30
2018-11-05T13:26:24.502Z,13.30
2018-11-05T13:28:53.075Z,13.20
2018-11-05T13:31:25.404Z,13.20
2018-11-05T13:33:54.899Z,13.10
2018-11-05T13:36:23.626Z,13.10
2018-11-05T13:38:52.223Z,13.10
2018-11-05T13:41:26.448Z,13.10
2018-11-05T13:43:54.920Z,13.10
2018-11-05T13:46:29.506Z,13.10
2018-11-05T13:48:58.099Z,13.20
2018-11-05T13:51:26.393Z,13.20
2018-11-05T13:53:55.268Z,13.10
2018-11-05T13:56:24.974Z,13.10
2018-11-05T13:59:00.791Z,13.00
2018-11-05T14:01:29.277Z,12.90
2018-11-05T14:03:57.942Z,12.90
2018-11-05T14:06:29.946Z,12.90
2018-11-05T14:08:58.594Z,12.90
2018-11-05T14:11:27.582Z,12.90
2018-11-05T14:13:58.114Z,12.90
2018-11-05T14:16:27.607Z,12.80
2018-11-05T14:18:57.390Z,12.70
2018-11-05T14:21:26.213Z,12.70
2018-11-05T14:23:54.872Z,12.70
2018-11-05T14:26:23.507Z,12.70
2018-11-05T14:28:54.603Z,12.70
2018-11-05T14:31:23.806Z,12.70
2018-11-05T14:33:52.505Z,12.70
2018-11-05T14:36:26.494Z,12.70
2018-11-05T14:39:07.176Z,12.60
2018-11-05T14:41:35.727Z,12.60
2018-11-05T14:44:08.946Z,12.60
2018-11-05T14:46:42.192Z,12.60
2018-11-05T14:49:13.215Z,12.50
2018-11-05T14:51:47.461Z,12.50
2018-11-05T14:54:15.952Z,12.40
2018-11-05T14:56:47.469Z,12.40
2018-11-05T14:59:16.201Z,12.40
2018-11-05T15:01:53.166Z,12.30
2018-11-05T15:04:21.790Z,12.30
2018-11-05T15:06:51.218Z,12.30
2018-11-05T15:09:26.341Z,12.20
2018-11-05T15:12:01.936Z,12.20
2018-11-05T15:14:31.701Z,12.10
2018-11-05T15:17:00.328Z,12.10
2018-11-05T15:19:32.651Z,12.10
2018-11-05T15:22:00.970Z,12.00
2018-11-05T15:24:32.980Z,12.00
2018-11-05T15:27:07.246Z,11.90
2018-11-05T15:29:42.948Z,11.90
2018-11-05T15:32:18.532Z,11.90
2018-11-05T15:34:49.123Z,11.90
2018-11-05T15:37:17.810Z,11.90
2018-11-05T15:39:46.414Z,11.80
2018-11-05T15:42:20.237Z,11.80
2018-11-05T15:45:03.379Z,11.70
2018-11-05T15:47:44.097Z,11.70
2018-11-05T15:50:20.083Z,11.70
2018-11-05T15:53:05.389Z,11.60
2018-11-05T15:55:33.792Z,11.50
2018-11-05T15:58:03.350Z,11.40
2018-11-05T16:00:35.229Z,11.40
2018-11-05T16:03:08.070Z,11.40
2018-11-05T16:05:40.067Z,11.40
2018-11-05T16:08:22.642Z,11.30
2018-11-05T16:10:52.095Z,11.20
2018-11-05T16:13:24.503Z,11.10
2018-11-05T16:15:58.078Z,11.20
2018-11-05T16:18:31.264Z,11.20
2018-11-05T16:21:04.125Z,11.20
2018-11-05T16:23:35.720Z,11.20
2018-11-05T16:26:09.839Z,11.20
2018-11-05T16:28:44.686Z,11.20
2018-11-05T16:31:13.115Z,11.30
2018-11-05T16:33:42.148Z,11.30
2018-11-05T16:36:11.727Z,11.20
2018-11-05T16:38:43.715Z,11.20
2018-11-05T16:41:30.803Z,11.10
2018-11-05T16:44:00.382Z,11.10
2018-11-05T16:46:41.260Z,11.00
2018-11-05T16:49:10.866Z,11.00
2018-11-05T16:51:40.618Z,11.00
2018-11-05T16:54:15.376Z,11.00
2018-11-05T16:56:43.873Z,11.00
2018-11-05T16:59:13.340Z,11.00
2018-11-05T17:01:42.460Z,11.00
2018-11-05T17:04:16.648Z,10.90
2018-11-05T17:06:51.549Z,10.90
2018-11-05T17:09:24.079Z,10.90
2018-11-05T17:11:56.041Z,10.90
2018-11-05T17:14:30.219Z,10.90
2018-11-05T17:16:58.845Z,10.80
2018-11-05T17:19:27.468Z,10.80
2018-11-05T17:21:56.101Z,10.80
2018-11-05T17:24:24.843Z,10.80
2018-11-05T17:26:53.481Z,10.80
2018-11-05T17:29:27.379Z,10.70
2018-11-05T17:31:57.055Z,10.70
2018-11-05T17:34:28.967Z,10.60
2018-11-05T17:37:00.557Z,10.60
2018-11-05T17:39:38.833Z,10.60
2018-11-05T17:42:19.450Z,10.60
2018-11-05T17:44:49.992Z,10.60
2018-11-05T17:47:19.483Z,10.50
2018-11-05T17:49:53.638Z,10.40
2018-11-05T17:52:22.253Z,10.30
2018-11-05T17:54:50.875Z,10.30
2018-11-05T17:57:19.559Z,10.20
2018-11-05T17:59:53.559Z,10.20
2018-11-05T18:02:26.129Z,10.10
2018-11-05T18:04:56.254Z,10.10
2018-11-05T18:07:25.838Z,10.10
2018-11-05T18:09:56.487Z,10.00
2018-11-05T18:12:28.097Z,10.00
2018-11-05T18:15:02.407Z,10.00
2018-11-05T18:17:51.161Z,10.00
2018-11-05T18:20:19.913Z,10.00
2018-11-05T18:23:07.353Z,10.00
2018-11-05T18:25:36.105Z,9.90
2018-11-05T18:28:04.867Z,9.90
2018-11-05T18:30:33.493Z,9.90
2018-11-05T18:33:02.151Z,9.90
2018-11-05T18:35:34.939Z,9.80
2018-11-05T18:38:05.795Z,9.70
2018-11-05T18:40:35.206Z,9.80
2018-11-05T18:43:13.810Z,9.70
2018-11-05T18:45:43.174Z,9.70
2018-11-05T18:48:14.014Z,9.60
2018-11-05T18:50:52.695Z,9.60
2018-11-05T18:53:24.941Z,9.50
2018-11-05T18:55:53.570Z,9.40
2018-11-05T18:58:30.188Z,9.40
2018-11-05T19:00:58.711Z,9.30
2018-11-05T19:03:33.113Z,9.30
2018-11-05T19:06:07.718Z,9.20
2018-11-05T19:08:36.291Z,9.20
2018-11-05T19:11:05.635Z,9.10
2018-11-05T19:13:38.190Z,9.10
2018-11-05T19:16:11.173Z,9.00
2018-11-05T19:18:41.133Z,9.00
2018-11-05T19:21:10.063Z,9.00
2018-11-05T19:23:38.655Z,8.90
2018-11-05T19:26:10.559Z,8.80
2018-11-05T19:28:42.577Z,8.90
2018-11-05T19:31:22.725Z,8.90
2018-11-05T19:33:53.513Z,8.80
2018-11-05T19:36:22.118Z,8.70
2018-11-05T19:38:52.827Z,8.70
2018-11-05T19:41:22.353Z,8.60
2018-11-05T19:43:51.862Z,8.50
2018-11-05T19:46:22.576Z,8.50
2018-11-05T19:48:59.245Z,8.50
2018-11-05T19:51:29.900Z,8.40
2018-11-05T19:53:58.456Z,8.30
2018-11-05T19:56:37.295Z,8.40
2018-11-05T19:59:07.805Z,8.30
2018-11-05T20:01:48.376Z,8.30
2018-11-05T20:04:17.020Z,8.30
2018-11-05T20:06:49.209Z,8.30
2018-11-05T20:09:21.711Z,8.30
2018-11-05T20:11:52.509Z,8.30
2018-11-05T20:14:22.044Z,8.20
2018-11-05T20:16:50.792Z,8.10
2018-11-05T20:19:20.273Z,8.20
2018-11-05T20:21:52.518Z,8.10
2018-11-05T20:24:28.020Z,8.10
2018-11-05T20:27:02.617Z,8.00
2018-11-05T20:29:32.113Z,7.90
2018-11-05T20:32:05.457Z,7.90
2018-11-05T20:34:34.965Z,7.80
2018-11-05T20:37:04.340Z,7.80
2018-11-05T20:39:39.040Z,7.80
2018-11-05T20:42:14.563Z,7.90
2018-11-05T20:44:43.123Z,7.80
2018-11-05T20:47:18.928Z,7.80
2018-11-05T20:49:47.415Z,7.80
2018-11-05T20:52:16.108Z,7.80
2018-11-05T20:54:50.351Z,7.70
2018-11-05T20:57:25.162Z,7.70
2018-11-05T20:59:58.552Z,7.70
2018-11-05T21:02:27.313Z,7.70
2018-11-05T21:04:55.900Z,7.70
2018-11-05T21:07:30.997Z,7.70
2018-11-05T21:09:59.408Z,7.70
2018-11-05T21:12:28.204Z,7.70
2018-11-05T21:15:01.080Z,7.70
2018-11-05T21:17:29.570Z,7.70
2018-11-05T21:20:02.928Z,7.70
2018-11-05T21:22:35.616Z,7.70
2018-11-05T21:25:08.768Z,7.70
2018-11-05T21:27:38.342Z,7.70
2018-11-05T21:30:15.066Z,7.70
2018-11-05T21:32:48.484Z,7.70
2018-11-05T21:35:28.902Z,7.70
2018-11-05T21:38:00.868Z,7.70
2018-11-05T21:40:37.215Z,7.70
2018-11-05T21:43:06.111Z,7.70
2018-11-05T21:45:40.267Z,7.60
2018-11-05T21:48:14.510Z,7.60
2018-11-05T21:50:43.090Z,7.60
2018-11-05T21:53:12.617Z,7.50
2018-11-05T21:55:43.515Z,7.50
2018-11-05T21:58:12.048Z,7.50
2018-11-05T22:00:40.761Z,7.50
2018-11-05T22:03:15.949Z,7.50
2018-11-05T22:05:47.539Z,7.50
2018-11-05T22:08:21.793Z,7.50
2018-11-05T22:10:57.441Z,7.50
2018-11-05T22:13:26.053Z,7.50
2018-11-05T22:15:54.555Z,7.50
2018-11-05T22:18:40.091Z,7.50
2018-11-05T22:21:08.778Z,7.50
2018-11-05T22:23:40.749Z,7.50
2018-11-05T22:26:12.755Z,7.50
2018-11-05T22:28:41.383Z,7.50
2018-11-05T22:31:10.873Z,7.50
2018-11-05T22:33:41.619Z,7.50
2018-11-05T22:36:11.122Z,7.50
2018-11-05T22:38:39.785Z,7.50
2018-11-05T22:41:16.111Z,7.50
2018-11-05T22:43:51.564Z,7.50
2018-11-05T22:46:21.044Z,7.50
2018-11-05T22:48:49.713Z,7.50
2018-11-05T22:51:18.385Z,7.60
2018-11-05T22:53:55.075Z,7.60
2018-11-05T22:56:23.527Z,7.60
2018-11-05T22:58:55.950Z,7.60
2018-11-05T23:01:34.170Z,7.60
2018-11-05T23:04:03.324Z,7.60
2018-11-05T23:06:32.498Z,7.60
2018-11-05T23:09:07.621Z,7.70
2018-11-05T23:11:36.126Z,7.70
2018-11-05T23:14:08.198Z,7.70
2018-11-05T23:16:38.889Z,7.70
2018-11-05T23:19:10.802Z,7.60
2018-11-05T23:21:39.490Z,7.60
2018-11-05T23:24:09.023Z,7.60
2018-11-05T23:26:40.991Z,7.60
2018-11-05T23:29:13.755Z,7.60
2018-11-05T23:31:45.327Z,7.60
2018-11-05T23:34:13.966Z,7.60
2018-11-05T23:36:52.489Z,7.60
2018-11-05T23:39:28.741Z,7.60
2018-11-05T23:41:59.575Z,7.60
2018-11-05T23:44:41.896Z,7.60
2018-11-05T23:47:26.738Z,7.70
2018-11-05T23:50:06.605Z,7.70
2018-11-05T23:55:29.109Z,7.70
2018-11-05T23:57:57.734Z,7.60
